EKCH/CPH METAR and TAF weather

Enter ICAO airport designator
Station Type Date Time Source
EKCH METAR 2022/05/24 11:20 UTC NOAA

EKCH 241120Z AUTO 23012KT 9999 OVC022/// 15/12 Q1002 NOSIG


Station Type Date Time Source
EKCH Decoded METAR 2022/05/24 11:20 UTC NOAA

Koebenhavn / Kastrup, Denmark (EKCH) 55-37N 012-39E 5M
May 24, 2022 - 07:20 AM EDT / 2022.05.24 1120 UTC
Wind: from the SW (230 degrees) at 14 MPH (12 KT):0
Visibility: greater than 7 mile(s):0
Sky conditions: overcast
Temperature: 59 F (15 C)
Dew Point: 53 F (12 C)
Relative Humidity: 82%
Pressure (altimeter): 29.59 in. Hg (1002 hPa)
ob: EKCH 241120Z AUTO 23012KT 9999 OVC022/// 15/12 Q1002 NOSIG
cycle: 11

Station Type Date Time Source
EKCH TAF 2022/05/24 12:32 UTC NOAA

TAF EKCH 241109Z 2412/2512 23010KT 9999 BKN020
TEMPO 2415/2420 SCT020CB
TEMPO 2511/2512 SCT020CB

Example: see airport list